Brighton, Michigan
Current Conditions -  °F | °C
As of 12:15 PM on Friday 31 Oct 2014 (Local Time) from KOZW Reporting Station
Moderate Rain Moderate Rain  
Wind Chill: 36°   Ceiling: 2200
Heat Index: 39°   Visibility: 7mi
Dew Point: 38°   Wind: 5mph
Humidity: 93%   Direction: 330°NNW
Pressure: 29.91"   Gusts: NA
Location:  42.53°N, 83.78°W
Report Text: KOZW 311615Z AUTO 33004KT 7SM RA SCT010 SCT013 OVC022 04/03 A2991 RMK AO2 T00410031
Loading
Personal Weather Stations






























Interactive Weather Map New forecast layout! Learn more

10-Day Weather Forecast

Advertisements
Track Severe Weather on mobile